Time;durP1;ratioP1;P1;durP2;ratioP2;P2;SDS_P1;SDS_P2;PMS_P1;PMS_P2;Temp;Humidity;BMP_temperature;BMP_pressure;BME280_temperature;BME280_humidity;BME280_pressure;Samples;Min_cycle;Max_cycle;Signal;HPM_P1;HPM_P2
2023/02/22 00:02:58;;;;;;;;;;;6.60;99.90;;;;;;5022907;28;19920;-65
2023/02/22 00:05:27;;;;;;;;;;;6.70;99.90;;;;;;5023263;28;19913;-65
2023/02/22 00:07:55;;;;;;;;;;;6.80;99.90;;;;;;5026591;28;19925;-65
2023/02/22 00:10:22;;;;;;;;;;;6.80;99.90;;;;;;5027402;28;19919;-64
2023/02/22 00:12:49;;;;;;;;;;;6.80;99.90;;;;;;5026307;28;20291;-65
2023/02/22 00:15:16;;;;;;;;;;;6.80;99.90;;;;;;5023698;28;19978;-65
2023/02/22 00:17:42;;;;;;;;;;;6.90;99.90;;;;;;5024653;28;20436;-65
2023/02/22 00:20:09;;;;;;;;;;;6.80;99.90;;;;;;5021398;28;20004;-65
2023/02/22 00:22:34;;;;;;;;;;;6.80;99.90;;;;;;5024391;28;19913;-64
2023/02/22 00:24:59;;;;;;;;;;;6.90;99.90;;;;;;5023929;28;19917;-64
2023/02/22 00:27:25;;;;;;;;;;;6.90;99.90;;;;;;5026751;28;19917;-65
2023/02/22 00:29:50;;;;;;;;;;;6.80;99.90;;;;;;5024546;28;19917;-64
2023/02/22 00:32:16;;;;;;;;;;;6.70;99.90;;;;;;5026584;28;20414;-65
2023/02/22 00:34:42;;;;;;;;;;;6.70;99.90;;;;;;5021630;28;20295;-65
2023/02/22 00:37:09;;;;;;;;;;;6.80;99.90;;;;;;5019315;28;20326;-65
2023/02/22 00:39:34;;;;;;;;;;;6.70;99.90;;;;;;5007386;28;19928;-65
2023/02/22 00:42:00;;;;;;;;;;;6.70;99.90;;;;;;5016567;28;19917;-65
2023/02/22 00:44:26;;;;;;;;;;;6.70;99.90;;;;;;5010768;28;19917;-65
2023/02/22 00:46:51;;;;;;;;;;;6.50;99.90;;;;;;5025034;28;19924;-65
2023/02/22 00:49:17;;;;;;;;;;;6.60;99.90;;;;;;5021981;28;19920;-65
2023/02/22 00:51:42;;;;;;;;;;;6.60;99.90;;;;;;5026808;28;19917;-65
2023/02/22 00:54:09;;;;;;;;;;;6.50;99.90;;;;;;5027060;28;19917;-64
2023/02/22 00:56:36;;;;;;;;;;;6.50;99.90;;;;;;5022427;28;19960;-65
2023/02/22 00:59:01;;;;;;;;;;;6.50;99.90;;;;;;5022866;28;20353;-62
2023/02/22 01:01:27;;;;;;;;;;;6.50;99.90;;;;;;5023935;28;20011;-63
2023/02/22 01:03:52;;;;;;;;;;;6.50;99.90;;;;;;5026964;28;20325;-64
2023/02/22 01:06:18;;;;;;;;;;;6.50;99.90;;;;;;5030621;28;19921;-64
2023/02/22 01:08:44;;;;;;;;;;;6.40;99.90;;;;;;5026734;28;19920;-64
2023/02/22 01:11:10;;;;;;;;;;;6.50;99.90;;;;;;5033440;28;19913;-64
2023/02/22 01:13:35;;;;;;;;;;;6.50;99.90;;;;;;5026868;28;19939;-64
2023/02/22 01:16:02;;;;;;;;;;;6.40;99.90;;;;;;5027596;28;19913;-64
2023/02/22 01:18:27;;;;;;;;;;;6.50;99.90;;;;;;5025878;28;19928;-64
2023/02/22 01:20:52;;;;;;;;;;;6.50;99.90;;;;;;5012900;28;19921;-64
2023/02/22 01:23:18;;;;;;;;;;;6.50;99.90;;;;;;5023152;28;19914;-65
2023/02/22 01:25:43;;;;;;;;;;;6.50;99.90;;;;;;5024804;28;19922;-65
2023/02/22 01:28:09;;;;;;;;;;;6.50;99.90;;;;;;5026070;28;20294;-64
2023/02/22 01:30:35;;;;;;;;;;;6.50;99.90;;;;;;5026977;28;20375;-64
2023/02/22 01:33:01;;;;;;;;;;;6.50;99.90;;;;;;5030988;28;19929;-65
2023/02/22 01:35:28;;;;;;;;;;;6.50;99.90;;;;;;5025554;28;19917;-65
2023/02/22 01:37:54;;;;;;;;;;;6.60;99.90;;;;;;5025450;28;19913;-64
2023/02/22 01:40:40;;;;;;;;;;;6.50;99.90;;;;;;5025120;28;19913;-65
2023/02/22 01:43:25;;;;;;;;;;;6.60;99.90;;;;;;5026829;28;19921;-65
2023/02/22 01:45:56;;;;;;;;;;;6.60;99.90;;;;;;5026773;28;19913;-64
2023/02/22 01:48:33;;;;;;;;;;;6.60;99.90;;;;;;5028002;28;19913;-64
2023/02/22 01:51:01;;;;;;;;;;;6.60;99.90;;;;;;5029669;28;20683;-64
2023/02/22 01:53:32;;;;;;;;;;;6.60;99.90;;;;;;5030666;28;19928;-64
2023/02/22 01:55:58;;;;;;;;;;;6.60;99.90;;;;;;5035444;28;20283;-64
2023/02/22 01:58:24;;;;;;;;;;;6.60;99.90;;;;;;5006070;28;19924;-64
2023/02/22 02:00:50;;;;;;;;;;;6.70;99.90;;;;;;5024536;28;19913;-64
2023/02/22 02:03:20;;;;;;;;;;;6.60;99.90;;;;;;5028696;28;20510;-65
2023/02/22 02:05:46;;;;;;;;;;;6.90;99.90;;;;;;5008290;28;20283;-64
2023/02/22 02:08:23;;;;;;;;;;;6.90;99.90;;;;;;5021987;28;19932;-63
2023/02/22 02:10:49;;;;;;;;;;;6.90;99.90;;;;;;5020571;28;20396;-65
2023/02/22 02:13:15;;;;;;;;;;;6.80;99.90;;;;;;5021402;28;20003;-65
2023/02/22 02:15:40;;;;;;;;;;;6.80;99.90;;;;;;5019162;28;20008;-63
2023/02/22 02:18:08;;;;;;;;;;;6.90;99.90;;;;;;5019351;28;19921;-64
2023/02/22 02:20:39;;;;;;;;;;;6.90;99.90;;;;;;5024497;28;19967;-65
2023/02/22 02:23:23;;;;;;;;;;;6.90;99.90;;;;;;5022387;28;20379;-64
2023/02/22 02:25:54;;;;;;;;;;;6.90;99.90;;;;;;5017215;28;19917;-64
2023/02/22 02:28:28;;;;;;;;;;;6.90;99.90;;;;;;5024063;28;19925;-64
2023/02/22 02:31:13;;;;;;;;;;;7.00;99.90;;;;;;5019284;28;19963;-64
2023/02/22 02:33:42;;;;;;;;;;;7.00;99.90;;;;;;5022114;28;20310;-64
2023/02/22 02:36:12;;;;;;;;;;;7.00;99.90;;;;;;5020147;28;20019;-64
2023/02/22 02:38:47;;;;;;;;;;;7.00;99.90;;;;;;5022170;28;19913;-64
2023/02/22 02:41:31;;;;;;;;;;;7.00;99.90;;;;;;5021598;28;19975;-65
2023/02/22 02:44:15;;;;;;;;;;;7.00;99.90;;;;;;5022804;28;20016;-64
2023/02/22 02:46:50;;;;;;;;;;;7.00;99.90;;;;;;5019291;28;19918;-65
2023/02/22 02:49:38;;;;;;;;;;;7.00;99.90;;;;;;5023473;28;20111;-64
2023/02/22 02:52:04;;;;;;;;;;;7.10;99.90;;;;;;5022464;28;19917;-65
2023/02/22 02:54:30;;;;;;;;;;;7.10;99.90;;;;;;5025332;28;19928;-63
2023/02/22 02:56:56;;;;;;;;;;;7.10;99.90;;;;;;5020047;28;20455;-64
2023/02/22 02:59:32;;;;;;;;;;;7.10;99.90;;;;;;5025673;28;20005;-65
2023/02/22 03:02:24;;;;;;;;;;;7.10;99.90;;;;;;5029926;28;19940;-64
2023/02/22 03:04:58;;;;;;;;;;;7.10;99.90;;;;;;5017376;28;20376;-64
2023/02/22 03:07:24;;;;;;;;;;;7.00;99.90;;;;;;5023491;28;19921;-64
2023/02/22 03:10:08;;;;;;;;;;;7.00;99.90;;;;;;5022384;28;19920;-64
2023/02/22 03:12:52;;;;;;;;;;;7.00;99.90;;;;;;5027681;28;20016;-62
2023/02/22 03:15:20;;;;;;;;;;;7.00;99.90;;;;;;5021211;28;19927;-63
2023/02/22 03:17:46;;;;;;;;;;;7.00;99.90;;;;;;5056449;23;19939;-64
2023/02/22 03:20:30;;;;;;;;;;;7.00;99.90;;;;;;5049616;28;20856;-63
2023/02/22 03:23:14;;;;;;;;;;;6.90;99.90;;;;;;5046318;28;20383;-64
2023/02/22 03:25:45;;;;;;;;;;;6.90;99.90;;;;;;5044807;28;20418;-64
2023/02/22 03:28:11;;;;;;;;;;;6.80;99.90;;;;;;5035942;28;19921;-65
2023/02/22 03:30:40;;;;;;;;;;;6.80;99.90;;;;;;5018076;28;20405;-64
2023/02/22 03:33:09;;;;;;;;;;;6.80;99.90;;;;;;5035302;28;19920;-66
2023/02/22 03:35:36;;;;;;;;;;;6.70;99.90;;;;;;5039589;28;20401;-64
2023/02/22 03:38:04;;;;;;;;;;;6.80;99.90;;;;;;5030965;28;19919;-64
2023/02/22 03:40:33;;;;;;;;;;;6.80;99.90;;;;;;5039336;28;20302;-62
2023/02/22 03:43:12;;;;;;;;;;;6.80;99.90;;;;;;5042333;28;19920;-65
2023/02/22 03:45:39;;;;;;;;;;;6.80;99.90;;;;;;5038522;28;20306;-66
2023/02/22 03:48:13;;;;;;;;;;;6.80;99.90;;;;;;5021393;28;19917;-64
2023/02/22 03:50:39;;;;;;;;;;;6.80;99.90;;;;;;5033618;28;19920;-66
2023/02/22 03:53:06;;;;;;;;;;;6.80;99.90;;;;;;5037650;28;19916;-65
2023/02/22 03:55:32;;;;;;;;;;;6.60;99.90;;;;;;5015426;28;19960;-64
2023/02/22 03:57:58;;;;;;;;;;;6.50;99.90;;;;;;5039247;28;19948;-64
2023/02/22 04:00:25;;;;;;;;;;;6.50;99.90;;;;;;5033788;28;20183;-66
2023/02/22 04:02:51;;;;;;;;;;;6.40;99.90;;;;;;5036512;28;19963;-64
2023/02/22 04:05:17;;;;;;;;;;;6.40;99.90;;;;;;5040819;28;19944;-64
2023/02/22 04:07:42;;;;;;;;;;;6.30;99.90;;;;;;5035407;28;19921;-65
2023/02/22 04:10:08;;;;;;;;;;;6.40;99.90;;;;;;5037823;28;20372;-64
2023/02/22 04:12:34;;;;;;;;;;;6.30;99.90;;;;;;5035434;28;19913;-64
2023/02/22 04:15:00;;;;;;;;;;;6.30;99.90;;;;;;5036973;28;19924;-64
2023/02/22 04:17:26;;;;;;;;;;;6.30;99.90;;;;;;5033532;28;20454;-65
2023/02/22 04:19:51;;;;;;;;;;;6.40;99.90;;;;;;5034682;28;20019;-65
2023/02/22 04:22:17;;;;;;;;;;;6.40;99.90;;;;;;5036927;28;19976;-65
2023/02/22 04:24:42;;;;;;;;;;;6.30;99.90;;;;;;5031845;28;19917;-64
2023/02/22 04:27:08;;;;;;;;;;;6.40;99.90;;;;;;5040045;28;19917;-65
2023/02/22 04:29:33;;;;;;;;;;;6.30;99.90;;;;;;5024825;28;20306;-63
2023/02/22 04:31:59;;;;;;;;;;;6.30;99.90;;;;;;5043115;28;19913;-64
2023/02/22 04:34:24;;;;;;;;;;;6.30;99.90;;;;;;5037073;28;19925;-65
2023/02/22 04:36:49;;;;;;;;;;;6.30;99.90;;;;;;5039786;28;19913;-64
2023/02/22 04:39:15;;;;;;;;;;;6.20;99.90;;;;;;5033361;28;20029;-63
2023/02/22 04:41:40;;;;;;;;;;;6.30;99.90;;;;;;5036738;28;19920;-63
2023/02/22 04:44:06;;;;;;;;;;;6.30;99.90;;;;;;5037474;28;19913;-62
2023/02/22 04:46:31;;;;;;;;;;;6.40;99.90;;;;;;5032461;28;19917;-62
2023/02/22 04:48:57;;;;;;;;;;;6.40;99.90;;;;;;5035451;28;20344;-63
2023/02/22 04:51:22;;;;;;;;;;;6.30;99.90;;;;;;5038772;28;19936;-63
2023/02/22 04:53:48;;;;;;;;;;;6.30;99.90;;;;;;5037542;28;19913;-63
2023/02/22 04:56:15;;;;;;;;;;;6.40;99.90;;;;;;5038750;28;20357;-66
2023/02/22 04:58:41;;;;;;;;;;;6.30;99.90;;;;;;5044665;28;19913;-66
2023/02/22 05:01:07;;;;;;;;;;;6.30;99.90;;;;;;5040684;28;19954;-65
2023/02/22 05:03:32;;;;;;;;;;;6.40;99.90;;;;;;5040442;28;19914;-64
2023/02/22 05:05:58;;;;;;;;;;;6.30;99.90;;;;;;5036662;28;19913;-66
2023/02/22 05:08:23;;;;;;;;;;;6.30;99.90;;;;;;5032466;28;19935;-66
2023/02/22 05:10:48;;;;;;;;;;;6.20;99.90;;;;;;5040921;28;19920;-65
2023/02/22 05:13:14;;;;;;;;;;;6.20;99.90;;;;;;5037388;28;19921;-65
2023/02/22 05:15:39;;;;;;;;;;;6.20;99.90;;;;;;5034066;28;19924;-65
2023/02/22 05:18:05;;;;;;;;;;;6.10;99.90;;;;;;5036931;28;19923;-65
2023/02/22 05:20:32;;;;;;;;;;;6.20;99.90;;;;;;5042073;28;20008;-65
2023/02/22 05:22:58;;;;;;;;;;;6.20;99.90;;;;;;5032196;28;20393;-64
2023/02/22 05:25:23;;;;;;;;;;;6.20;99.90;;;;;;5036636;28;19968;-65
2023/02/22 05:27:56;;;;;;;;;;;6.20;99.90;;;;;;5037991;28;19917;-64
2023/02/22 05:30:23;;;;;;;;;;;6.10;99.90;;;;;;5032463;28;20398;-64
2023/02/22 05:32:49;;;;;;;;;;;6.10;99.90;;;;;;5039419;28;20618;-66
2023/02/22 05:35:15;;;;;;;;;;;6.10;99.90;;;;;;5033407;28;19991;-65
2023/02/22 05:37:40;;;;;;;;;;;6.10;99.90;;;;;;5032728;28;20321;-64
2023/02/22 05:40:06;;;;;;;;;;;6.20;99.90;;;;;;5032140;28;19919;-64
2023/02/22 05:42:32;;;;;;;;;;;6.20;99.90;;;;;;5029032;28;19924;-65
2023/02/22 05:44:59;;;;;;;;;;;6.20;99.90;;;;;;5040528;28;20406;-65
2023/02/22 05:47:24;;;;;;;;;;;6.10;99.90;;;;;;5033390;28;20015;-62
2023/02/22 05:49:50;;;;;;;;;;;6.00;99.90;;;;;;5040482;28;20384;-64
2023/02/22 05:52:15;;;;;;;;;;;6.10;99.90;;;;;;5039150;28;20302;-64
2023/02/22 05:54:40;;;;;;;;;;;6.00;99.90;;;;;;5035841;28;19913;-65
2023/02/22 05:57:06;;;;;;;;;;;6.00;99.90;;;;;;5033550;28;20020;-65
2023/02/22 05:59:32;;;;;;;;;;;6.10;99.90;;;;;;5039107;28;19917;-65
2023/02/22 06:01:57;;;;;;;;;;;6.00;99.90;;;;;;5038101;28;20595;-63
2023/02/22 06:04:23;;;;;;;;;;;6.10;99.90;;;;;;5038031;28;19917;-67
2023/02/22 06:06:48;;;;;;;;;;;6.00;99.90;;;;;;5037459;28;19925;-65
2023/02/22 06:09:14;;;;;;;;;;;6.10;99.90;;;;;;5040189;28;19959;-64
2023/02/22 06:11:39;;;;;;;;;;;6.10;99.90;;;;;;5036064;28;20417;-63
2023/02/22 06:14:05;;;;;;;;;;;6.00;99.90;;;;;;5036750;28;19913;-65
2023/02/22 06:16:30;;;;;;;;;;;6.10;99.90;;;;;;5041419;28;20329;-65
2023/02/22 06:18:56;;;;;;;;;;;6.10;99.90;;;;;;5038556;28;20044;-65
2023/02/22 06:21:22;;;;;;;;;;;6.00;99.90;;;;;;5037291;28;20615;-66
2023/02/22 06:23:47;;;;;;;;;;;6.00;99.90;;;;;;5041064;28;20414;-66
2023/02/22 06:26:16;;;;;;;;;;;6.00;99.90;;;;;;5036380;28;19917;-66
2023/02/22 06:28:41;;;;;;;;;;;6.00;99.90;;;;;;5036369;28;19921;-66
2023/02/22 06:31:07;;;;;;;;;;;6.00;99.90;;;;;;5036260;28;19936;-66
2023/02/22 06:33:32;;;;;;;;;;;6.00;99.90;;;;;;5034527;28;19913;-61
2023/02/22 06:35:58;;;;;;;;;;;6.00;99.90;;;;;;5036084;28;20004;-66
2023/02/22 06:38:24;;;;;;;;;;;5.90;99.90;;;;;;5033870;28;20326;-62
2023/02/22 06:40:49;;;;;;;;;;;5.90;99.90;;;;;;5039023;28;20088;-65
2023/02/22 06:43:15;;;;;;;;;;;6.00;99.90;;;;;;5040741;28;19924;-63
2023/02/22 06:45:41;;;;;;;;;;;5.90;99.90;;;;;;5039279;28;20337;-64
2023/02/22 06:48:06;;;;;;;;;;;5.90;99.90;;;;;;5030661;28;19924;-63
2023/02/22 06:50:32;;;;;;;;;;;5.80;99.90;;;;;;5033844;28;19913;-62
2023/02/22 06:52:58;;;;;;;;;;;5.80;99.90;;;;;;5037452;28;19956;-62
2023/02/22 06:55:25;;;;;;;;;;;5.90;99.90;;;;;;5038882;28;19952;-63
2023/02/22 06:57:50;;;;;;;;;;;5.80;99.90;;;;;;5036075;28;19913;-65
2023/02/22 07:00:17;;;;;;;;;;;5.80;99.90;;;;;;5034844;28;20441;-65
2023/02/22 07:02:43;;;;;;;;;;;5.80;99.90;;;;;;5039193;28;19913;-62
2023/02/22 07:05:10;;;;;;;;;;;5.60;99.90;;;;;;5041642;28;19920;-61
2023/02/22 07:07:37;;;;;;;;;;;5.60;99.90;;;;;;5042146;28;19917;-65
2023/02/22 07:10:03;;;;;;;;;;;5.70;99.90;;;;;;5037118;28;19913;-65
2023/02/22 07:12:29;;;;;;;;;;;5.60;99.90;;;;;;5034810;28;19979;-65
2023/02/22 07:14:55;;;;;;;;;;;5.60;99.90;;;;;;5036428;28;20375;-65
2023/02/22 07:17:20;;;;;;;;;;;5.60;99.90;;;;;;5040724;28;19928;-64
2023/02/22 07:19:46;;;;;;;;;;;5.50;99.90;;;;;;5048889;28;19913;-64
2023/02/22 07:22:11;;;;;;;;;;;5.50;99.90;;;;;;5039974;28;19910;-64
2023/02/22 07:24:37;;;;;;;;;;;5.50;99.90;;;;;;5040417;28;19913;-64
2023/02/22 07:27:02;;;;;;;;;;;5.60;99.90;;;;;;5036365;28;19917;-64
2023/02/22 07:29:28;;;;;;;;;;;5.70;99.90;;;;;;5046541;28;19913;-64
2023/02/22 07:31:53;;;;;;;;;;;5.70;99.90;;;;;;5038361;28;20403;-64
2023/02/22 07:34:18;;;;;;;;;;;5.70;99.90;;;;;;5038689;28;19913;-65
2023/02/22 07:36:44;;;;;;;;;;;5.80;99.90;;;;;;5035561;28;20029;-63
2023/02/22 07:39:10;;;;;;;;;;;5.80;99.90;;;;;;5042862;28;19913;-64
2023/02/22 07:41:35;;;;;;;;;;;5.90;99.90;;;;;;5040645;28;19949;-63
2023/02/22 07:44:01;;;;;;;;;;;5.90;99.90;;;;;;5040681;28;20238;-63
2023/02/22 07:46:26;;;;;;;;;;;5.90;99.90;;;;;;5035013;28;20771;-64
2023/02/22 07:48:51;;;;;;;;;;;6.00;99.90;;;;;;5041167;28;20351;-65
2023/02/22 07:51:19;;;;;;;;;;;6.00;99.90;;;;;;5039254;28;19914;-64
2023/02/22 07:53:45;;;;;;;;;;;6.10;99.90;;;;;;5038252;28;20405;-65
2023/02/22 07:56:10;;;;;;;;;;;6.20;99.90;;;;;;5024407;28;19912;-66
2023/02/22 07:58:36;;;;;;;;;;;6.30;99.90;;;;;;5037411;28;19912;-64
2023/02/22 08:01:01;;;;;;;;;;;6.30;99.90;;;;;;5039378;28;20473;-65
2023/02/22 08:03:29;;;;;;;;;;;6.40;99.90;;;;;;5037965;28;19920;-66
2023/02/22 08:05:56;;;;;;;;;;;6.40;99.90;;;;;;5037470;28;19921;-64
2023/02/22 08:08:21;;;;;;;;;;;6.40;99.90;;;;;;5040096;28;20003;-64
2023/02/22 08:10:47;;;;;;;;;;;6.50;99.90;;;;;;5036058;28;20016;-65
2023/02/22 08:13:13;;;;;;;;;;;6.50;99.90;;;;;;5041027;28;20323;-64
2023/02/22 08:15:39;;;;;;;;;;;6.60;99.90;;;;;;5042289;28;19919;-64
2023/02/22 08:18:07;;;;;;;;;;;6.60;99.90;;;;;;5036501;28;19946;-64
2023/02/22 08:20:33;;;;;;;;;;;6.70;99.90;;;;;;5035919;28;19917;-66
2023/02/22 08:22:59;;;;;;;;;;;6.80;99.90;;;;;;5033677;28;19983;-65
2023/02/22 08:25:26;;;;;;;;;;;6.80;99.90;;;;;;5042756;28;19920;-65
2023/02/22 08:27:51;;;;;;;;;;;6.90;99.90;;;;;;5040880;28;19939;-65
2023/02/22 08:30:18;;;;;;;;;;;7.00;99.90;;;;;;5036392;28;19916;-65
2023/02/22 08:32:44;;;;;;;;;;;7.00;99.90;;;;;;5038270;28;20078;-62
2023/02/22 08:35:12;;;;;;;;;;;7.00;99.90;;;;;;5033736;28;20611;-63
2023/02/22 08:37:41;;;;;;;;;;;7.00;99.90;;;;;;5041043;28;20263;-64
2023/02/22 08:40:06;;;;;;;;;;;7.10;99.90;;;;;;5045791;28;19917;-63
2023/02/22 08:42:32;;;;;;;;;;;7.20;99.90;;;;;;5037914;28;20390;-62
2023/02/22 08:44:57;;;;;;;;;;;7.20;99.90;;;;;;5042203;28;19913;-62
2023/02/22 08:47:23;;;;;;;;;;;7.30;99.90;;;;;;5039078;28;19923;-63
2023/02/22 08:49:48;;;;;;;;;;;7.30;99.90;;;;;;5040245;28;20361;-62
2023/02/22 08:52:14;;;;;;;;;;;7.40;99.90;;;;;;5035632;28;19913;-61
2023/02/22 08:54:39;;;;;;;;;;;7.50;99.90;;;;;;5035001;28;20394;-63
2023/02/22 08:57:05;;;;;;;;;;;7.50;99.90;;;;;;5035966;28;20311;-61
2023/02/22 08:59:30;;;;;;;;;;;7.60;99.90;;;;;;5037740;28;19913;-62
2023/02/22 09:01:55;;;;;;;;;;;7.60;99.90;;;;;;5037120;28;20308;-63
2023/02/22 09:04:21;;;;;;;;;;;7.70;99.90;;;;;;5041484;28;20449;-63
2023/02/22 09:06:50;;;;;;;;;;;7.80;99.90;;;;;;5039994;28;20003;-62
2023/02/22 09:09:17;;;;;;;;;;;7.90;99.90;;;;;;5036445;28;19913;-62
2023/02/22 09:11:43;;;;;;;;;;;8.00;99.90;;;;;;5039025;28;19924;-62
2023/02/22 09:14:08;;;;;;;;;;;8.00;99.90;;;;;;5032355;28;20295;-63
2023/02/22 09:16:36;;;;;;;;;;;8.10;99.90;;;;;;5032064;28;19932;-63
2023/02/22 09:19:02;;;;;;;;;;;8.20;99.90;;;;;;5032213;28;19924;-62
2023/02/22 09:21:28;;;;;;;;;;;8.30;99.90;;;;;;5035283;28;19921;-63
2023/02/22 09:23:55;;;;;;;;;;;8.30;99.90;;;;;;5037631;28;20295;-63
2023/02/22 09:26:22;;;;;;;;;;;8.40;99.90;;;;;;5039011;28;19917;-62
2023/02/22 09:28:48;;;;;;;;;;;8.40;99.90;;;;;;5036490;28;19960;-62
2023/02/22 09:31:14;;;;;;;;;;;8.50;99.90;;;;;;5043480;28;19912;-64
2023/02/22 09:33:40;;;;;;;;;;;8.60;99.90;;;;;;5041633;28;19913;-63
2023/02/22 09:36:06;;;;;;;;;;;8.70;99.90;;;;;;5038038;28;19920;-63
2023/02/22 09:38:31;;;;;;;;;;;8.80;99.90;;;;;;5039833;28;19913;-61
2023/02/22 09:41:11;;;;;;;;;;;8.90;99.90;;;;;;5037644;28;19921;-63
2023/02/22 09:43:40;;;;;;;;;;;9.00;99.90;;;;;;5041515;28;20438;-63
2023/02/22 09:46:17;;;;;;;;;;;9.00;99.90;;;;;;5040259;28;19931;-64
2023/02/22 09:48:58;;;;;;;;;;;9.10;99.90;;;;;;5036994;28;19957;-63
2023/02/22 09:51:40;;;;;;;;;;;9.20;99.90;;;;;;5045305;28;20370;-64
2023/02/22 09:54:13;;;;;;;;;;;9.40;99.90;;;;;;5041103;28;20341;-63
2023/02/22 09:56:39;;;;;;;;;;;9.60;99.90;;;;;;5035038;28;20386;-62
2023/02/22 09:59:06;;;;;;;;;;;9.70;99.90;;;;;;5046828;28;19967;-61
2023/02/22 10:01:32;;;;;;;;;;;9.90;99.90;;;;;;5046410;28;20359;-64
2023/02/22 10:04:00;;;;;;;;;;;10.00;99.90;;;;;;5029918;28;19960;-63
2023/02/22 10:06:26;;;;;;;;;;;10.10;99.90;;;;;;5041770;28;19913;-63
2023/02/22 10:08:55;;;;;;;;;;;10.20;99.90;;;;;;5021795;28;19917;-62
2023/02/22 10:11:33;;;;;;;;;;;10.30;99.90;;;;;;5026111;28;19925;-62
2023/02/22 10:14:02;;;;;;;;;;;10.50;99.90;;;;;;5017758;28;19916;-61
2023/02/22 10:16:46;;;;;;;;;;;10.50;99.90;;;;;;5039309;28;19919;-62
2023/02/22 10:19:34;;;;;;;;;;;10.70;99.90;;;;;;5043358;28;19920;-62
2023/02/22 10:22:21;;;;;;;;;;;10.80;99.90;;;;;;5039710;28;19920;-64
2023/02/22 10:24:46;;;;;;;;;;;10.90;99.90;;;;;;5040479;28;20292;-61
2023/02/22 10:27:16;;;;;;;;;;;11.10;99.90;;;;;;5038383;28;19925;-62
2023/02/22 10:29:43;;;;;;;;;;;11.20;99.90;;;;;;5038251;28;19923;-63
2023/02/22 10:32:13;;;;;;;;;;;11.30;99.90;;;;;;5036997;28;20280;-63
2023/02/22 10:34:41;;;;;;;;;;;11.40;99.90;;;;;;5041055;28;19913;-64
2023/02/22 10:37:12;;;;;;;;;;;11.50;99.90;;;;;;5043942;28;19956;-64
2023/02/22 10:39:38;;;;;;;;;;;11.50;99.90;;;;;;5052562;28;19943;-64
2023/02/22 10:42:05;;;;;;;;;;;11.70;99.90;;;;;;5044186;28;20406;-64
2023/02/22 10:44:32;;;;;;;;;;;11.70;99.90;;;;;;5036868;28;19976;-65
2023/02/22 10:46:59;;;;;;;;;;;11.80;99.90;;;;;;5040760;28;19968;-64
2023/02/22 10:49:25;;;;;;;;;;;12.00;99.90;;;;;;5042608;28;19971;-64
2023/02/22 10:52:01;;;;;;;;;;;12.10;99.90;;;;;;5033377;28;19913;-64
2023/02/22 10:54:35;;;;;;;;;;;12.20;99.90;;;;;;5040026;28;20055;-61
2023/02/22 10:57:02;;;;;;;;;;;12.30;99.90;;;;;;5047649;28;19913;-64
2023/02/22 10:59:33;;;;;;;;;;;12.50;99.90;;;;;;5040883;28;20680;-63
2023/02/22 11:01:59;;;;;;;;;;;12.60;99.90;;;;;;5038592;28;19913;-64
2023/02/22 11:04:24;;;;;;;;;;;12.70;99.90;;;;;;5036220;28;19921;-64
2023/02/22 11:07:07;;;;;;;;;;;12.70;99.90;;;;;;5033268;28;19913;-64
2023/02/22 11:09:44;;;;;;;;;;;12.80;99.90;;;;;;5036637;28;19913;-64
2023/02/22 11:12:15;;;;;;;;;;;13.00;99.90;;;;;;5048321;28;19920;-64
2023/02/22 11:14:41;;;;;;;;;;;13.20;99.90;;;;;;5036108;28;19913;-63
2023/02/22 11:17:07;;;;;;;;;;;13.40;99.90;;;;;;5042585;28;19963;-64
2023/02/22 11:19:33;;;;;;;;;;;13.50;99.90;;;;;;5039467;28;20605;-64
2023/02/22 11:22:18;;;;;;;;;;;13.60;99.90;;;;;;5043018;28;19959;-63
2023/02/22 11:24:50;;;;;;;;;;;13.80;99.90;;;;;;5035601;28;19913;-64
2023/02/22 11:27:37;;;;;;;;;;;13.70;99.90;;;;;;5036780;28;19921;-63
2023/02/22 11:30:08;;;;;;;;;;;13.80;99.90;;;;;;5038288;28;19924;-63
2023/02/22 11:32:35;;;;;;;;;;;14.00;99.90;;;;;;5038014;28;19920;-65
2023/02/22 11:35:29;;;;;;;;;;;14.10;99.90;;;;;;5034160;28;20389;-64
2023/02/22 11:38:09;;;;;;;;;;;14.10;99.90;;;;;;5031435;28;19917;-63
2023/02/22 11:40:35;;;;;;;;;;;14.40;99.90;;;;;;5048968;28;19917;-64
2023/02/22 11:43:10;;;;;;;;;;;14.60;99.90;;;;;;5040676;28;19913;-61
2023/02/22 11:45:37;;;;;;;;;;;14.70;99.90;;;;;;5045151;28;20374;-63
2023/02/22 11:48:04;;;;;;;;;;;14.90;99.90;;;;;;5038240;28;19917;-64
2023/02/22 11:50:52;;;;;;;;;;;15.00;99.90;;;;;;5033782;28;19932;-64
2023/02/22 11:53:18;;;;;;;;;;;15.10;99.90;;;;;;5036840;28;20421;-63
2023/02/22 11:55:54;;;;;;;;;;;15.10;99.90;;;;;;5037828;28;19909;-65
2023/02/22 11:58:20;;;;;;;;;;;14.80;99.90;;;;;;5033334;28;19959;-64
2023/02/22 12:00:48;;;;;;;;;;;14.80;99.90;;;;;;5035274;28;20334;-64
2023/02/22 12:03:20;;;;;;;;;;;15.00;99.90;;;;;;5037737;28;19913;-64
2023/02/22 12:06:09;;;;;;;;;;;15.20;99.90;;;;;;5030648;28;19948;-62
2023/02/22 12:08:46;;;;;;;;;;;15.30;99.90;;;;;;5029772;28;19928;-62
2023/02/22 12:11:27;;;;;;;;;;;15.30;99.90;;;;;;5036193;28;19913;-62
2023/02/22 12:14:11;;;;;;;;;;;15.20;99.90;;;;;;5040321;28;19956;-63
2023/02/22 12:16:37;;;;;;;;;;;15.10;99.90;;;;;;5031505;28;19917;-64
2023/02/22 12:19:28;;;;;;;;;;;15.20;99.90;;;;;;5039568;28;19921;-65
2023/02/22 12:22:01;;;;;;;;;;;15.20;99.90;;;;;;5036696;28;19913;-65
2023/02/22 12:24:38;;;;;;;;;;;15.30;99.90;;;;;;5036668;28;19913;-62
2023/02/22 12:27:08;;;;;;;;;;;15.30;99.90;;;;;;5042184;28;20581;-62
2023/02/22 12:30:00;;;;;;;;;;;15.30;99.90;;;;;;5035053;28;19917;-62
2023/02/22 12:32:33;;;;;;;;;;;15.20;99.90;;;;;;5026912;28;20389;-64
2023/02/22 12:35:08;;;;;;;;;;;15.10;99.90;;;;;;5028923;28;19964;-63
2023/02/22 12:37:47;;;;;;;;;;;15.00;99.90;;;;;;5032568;28;20515;-65
2023/02/22 12:40:22;;;;;;;;;;;14.90;99.90;;;;;;5035766;28;19960;-65
2023/02/22 12:43:04;;;;;;;;;;;15.00;99.90;;;;;;5040925;28;19909;-62
2023/02/22 12:45:35;;;;;;;;;;;15.00;99.90;;;;;;5031812;28;19916;-63
2023/02/22 12:48:08;;;;;;;;;;;14.90;99.90;;;;;;5034618;28;19923;-64
2023/02/22 12:50:33;;;;;;;;;;;14.80;99.90;;;;;;5037294;28;19948;-64
2023/02/22 12:53:13;;;;;;;;;;;14.70;99.90;;;;;;5034590;28;19960;-63
2023/02/22 12:55:44;;;;;;;;;;;14.50;99.90;;;;;;5034919;28;19917;-60
2023/02/22 12:58:19;;;;;;;;;;;14.60;99.90;;;;;;5040367;28;19909;-64
2023/02/22 13:00:48;;;;;;;;;;;14.60;99.90;;;;;;5042738;28;19967;-64
2023/02/22 13:03:13;;;;;;;;;;;14.50;99.90;;;;;;5025810;28;19920;-63
2023/02/22 13:05:39;;;;;;;;;;;14.50;99.90;;;;;;5036963;28;19909;-64
2023/02/22 13:08:24;;;;;;;;;;;14.40;99.90;;;;;;5040414;28;19987;-64
2023/02/22 13:10:58;;;;;;;;;;;14.50;99.90;;;;;;5031217;28;19921;-64
2023/02/22 13:13:36;;;;;;;;;;;14.50;99.90;;;;;;5040542;28;19913;-62
2023/02/22 13:16:25;;;;;;;;;;;14.50;99.90;;;;;;5042640;28;19921;-62
2023/02/22 13:18:50;;;;;;;;;;;14.30;99.90;;;;;;5039400;28;19931;-64
2023/02/22 13:21:28;;;;;;;;;;;14.50;99.90;;;;;;5046755;28;19913;-64
2023/02/22 13:24:03;;;;;;;;;;;14.40;99.90;;;;;;5034958;28;19913;-63
2023/02/22 13:29:04;;;;;;;;;;;14.60;99.90;;;;;;5201813;23;20287;-83
2023/02/22 13:31:35;;;;;;;;;;;15.00;99.90;;;;;;5017085;28;19923;-83
2023/02/22 13:34:01;;;;;;;;;;;15.20;99.90;;;;;;5053122;28;19927;-82
2023/02/22 13:36:36;;;;;;;;;;;15.40;99.90;;;;;;5056929;28;19913;-84
2023/02/22 13:39:20;;;;;;;;;;;15.80;99.90;;;;;;5051573;28;19913;-84
2023/02/22 13:41:54;;;;;;;;;;;16.20;99.90;;;;;;5020614;28;20393;-84
2023/02/22 13:44:19;;;;;;;;;;;16.30;99.90;;;;;;5023153;28;20365;-85
2023/02/22 13:47:00;;;;;;;;;;;16.50;99.90;;;;;;5032872;28;19975;-84
2023/02/22 13:49:25;;;;;;;;;;;16.80;99.90;;;;;;5018681;28;19913;-83
2023/02/22 13:51:53;;;;;;;;;;;17.00;99.90;;;;;;5051601;28;19932;-83
2023/02/22 13:54:30;;;;;;;;;;;16.90;99.90;;;;;;5018637;28;19982;-83
2023/02/22 13:56:56;;;;;;;;;;;17.10;99.90;;;;;;5020435;28;19960;-83
2023/02/22 13:59:29;;;;;;;;;;;17.10;99.90;;;;;;5044567;28;19917;-84
2023/02/22 14:01:55;;;;;;;;;;;17.10;99.90;;;;;;5017753;28;19941;-83
2023/02/22 14:04:21;;;;;;;;;;;16.90;99.90;;;;;;5019777;28;19921;-83
2023/02/22 14:06:46;;;;;;;;;;;16.90;99.90;;;;;;5042195;28;19975;-83
2023/02/22 14:09:18;;;;;;;;;;;16.70;99.90;;;;;;5036603;28;20005;-82
2023/02/22 14:11:50;;;;;;;;;;;16.30;99.90;;;;;;5025028;28;20000;-83
2023/02/22 14:14:23;;;;;;;;;;;16.10;99.90;;;;;;5020603;28;19916;-83
2023/02/22 14:17:09;;;;;;;;;;;16.30;99.90;;;;;;5022278;28;20008;-83
2023/02/22 14:19:35;;;;;;;;;;;16.20;99.90;;;;;;5020022;28;19936;-83
2023/02/22 14:22:02;;;;;;;;;;;16.20;99.90;;;;;;5020585;28;19909;-83
2023/02/22 14:24:49;;;;;;;;;;;16.10;99.90;;;;;;5039565;28;19917;-83
2023/02/22 14:27:16;;;;;;;;;;;16.20;99.90;;;;;;5050321;28;19914;-83
2023/02/22 14:29:52;;;;;;;;;;;16.10;99.90;;;;;;5022142;28;19917;-83
2023/02/22 14:32:19;;;;;;;;;;;16.20;99.90;;;;;;5019280;28;19940;-83
2023/02/22 14:34:48;;;;;;;;;;;16.30;99.90;;;;;;5050107;28;19917;-83
2023/02/22 14:37:16;;;;;;;;;;;16.20;99.90;;;;;;5036252;28;19928;-83
2023/02/22 14:39:47;;;;;;;;;;;16.30;99.90;;;;;;5037646;28;20366;-83
2023/02/22 14:42:16;;;;;;;;;;;16.20;99.90;;;;;;5020338;28;20467;-83